»·PEaware :: UAL1399 KFAT-KLAX

UAL1399 :: KFAT-KLAX

FLIGHT INFORMATION

Flight Status: Arrived
Operator:
United Airlines
More flights by this operator :: More flights under this callsign
Pilot: David C. (16084)
Aircraft: AIRBUS A320
(A320)
More flights by this aircraft type
Origin: KFAT Fresno Yosemite Intl
United States
Destination: KLAX Los Angeles Intl
United States
More flights between these airports :: More routes between these airports
Route: +CZQ FRAME PONDD TAFTO MUPTT IRNMN2
File this flight plan on PilotEdge
Remarks:
Altitude:
(Current/Filed)
27,000ft
Speed:
(Current/Filed)
495kts
Departed: 12-Jul-18 08:45 AM
Arrived: 12-Jul-18 09:31 AM
Distance/Time
Traveled:
182nm/0:45
Distance/Time
To Go:
Arrived

Flight Plot

Page will automatically refresh every two minutes.

Flight plan parsing failed; only flown route is shown


Map Options




Map Legend


Flown Route
Filed Route
Departure Airport
Arrival Airport
Navaid (VOR, NDB)
Fix

Horizontal Profiles

Position Reports

Time Latitude Longitude Heading Altitude Ground
Speed
12-Jul-18 08:14 36.771000 -119.718267 315 344ft 0kts
12-Jul-18 08:15 36.771000 -119.718267 315 344ft 0kts
12-Jul-18 08:16 36.771000 -119.718267 315 344ft 0kts
12-Jul-18 08:17 36.771000 -119.718267 315 344ft 0kts
12-Jul-18 08:18 36.771000 -119.718267 315 344ft 0kts
12-Jul-18 08:19 36.771000 -119.718267 315 344ft 0kts
12-Jul-18 08:20 36.771000 -119.718267 315 344ft 0kts
12-Jul-18 08:21 36.771000 -119.718267 315 344ft 0kts
12-Jul-18 08:22 36.771000 -119.718267 315 344ft 0kts
12-Jul-18 08:23 36.771000 -119.718267 315 344ft 0kts
12-Jul-18 08:24 36.771000 -119.718267 315 344ft 0kts
12-Jul-18 08:25 36.771000 -119.718267 315 344ft 0kts
12-Jul-18 08:26 36.771000 -119.718267 315 344ft 0kts
12-Jul-18 08:27 36.771000 -119.718267 315 344ft 0kts
12-Jul-18 08:28 36.771000 -119.718267 315 344ft 0kts
12-Jul-18 08:29 36.771000 -119.718267 315 344ft 0kts
12-Jul-18 08:30 36.770738 -119.717991 354 344ft 2kts
12-Jul-18 08:31 36.770521 -119.718083 34 344ft 0kts
12-Jul-18 08:32 36.770521 -119.718083 34 344ft 0kts
12-Jul-18 08:33 36.770521 -119.718083 34 344ft 0kts
12-Jul-18 08:34 36.770521 -119.718083 34 344ft 0kts
12-Jul-18 08:35 36.770521 -119.718083 34 344ft 0kts
12-Jul-18 08:36 36.770521 -119.718083 34 344ft 0kts
12-Jul-18 08:37 36.770521 -119.718083 34 344ft 0kts
12-Jul-18 08:38 36.771650 -119.716746 40 344ft 13kts
12-Jul-18 08:39 36.770044 -119.712095 125 344ft 21kts
12-Jul-18 08:40 36.767588 -119.705180 90 344ft 23kts
12-Jul-18 08:41 36.768083 -119.704357 30 344ft 0kts
12-Jul-18 08:42 36.768083 -119.704357 30 344ft 0kts
12-Jul-18 08:43 36.768083 -119.704357 30 344ft 0kts
12-Jul-18 08:44 36.768083 -119.704357 30 344ft 0kts
12-Jul-18 08:45 36.768923 -119.703887 351 344ft 10kts
12-Jul-18 08:46 36.774964 -119.714412 304 345ft 149kts
12-Jul-18 08:47 36.805278 -119.768042 305 2828ft 217kts
12-Jul-18 08:48 36.826854 -119.835250 244 6192ft 228kts
12-Jul-18 08:49 36.770645 -119.846701 160 9263ft 236kts
12-Jul-18 08:50 36.718959 -119.798468 134 10035ft 235kts
12-Jul-18 08:51 36.670769 -119.741423 135 10742ft 260kts
12-Jul-18 08:52 36.612480 -119.674666 146 13460ft 301kts
12-Jul-18 08:53 36.540414 -119.636006 155 15896ft 324kts
12-Jul-18 08:54 36.460068 -119.594452 155 18503ft 335kts
12-Jul-18 08:55 36.372715 -119.549330 155 20983ft 346kts
12-Jul-18 08:56 36.282854 -119.503031 154 23212ft 356kts
12-Jul-18 08:57 36.190727 -119.455677 154 25234ft 365kts
12-Jul-18 08:58 36.095990 -119.407108 154 26960ft 371kts
12-Jul-18 08:59 35.995119 -119.355556 155 27029ft 419kts
12-Jul-18 09:00 35.882968 -119.298412 155 27024ft 459kts
12-Jul-18 09:01 35.755628 -119.274218 182 27024ft 481kts
12-Jul-18 09:02 35.622389 -119.285700 181 27026ft 481kts
12-Jul-18 09:03 35.492891 -119.296764 181 27026ft 482kts
12-Jul-18 09:04 35.359262 -119.308175 182 27016ft 482kts
12-Jul-18 09:05 35.226311 -119.319493 182 27016ft 482kts
12-Jul-18 09:06 35.102108 -119.325736 178 27018ft 481kts
12-Jul-18 09:07 34.968812 -119.326735 178 26790ft 478kts
12-Jul-18 09:08 34.867110 -119.327475 178 25944ft 450kts
12-Jul-18 09:09 34.753705 -119.322782 161 25100ft 400kts
12-Jul-18 09:10 34.663201 -119.252666 142 23211ft 381kts
12-Jul-18 09:11 34.578555 -119.179385 143 21263ft 370kts
12-Jul-18 09:12 34.497867 -119.108353 142 19371ft 358kts
12-Jul-18 09:13 34.418732 -119.038618 142 17570ft 346kts
12-Jul-18 09:14 34.341597 -118.971914 143 15741ft 337kts
12-Jul-18 09:15 34.267857 -118.905068 141 13955ft 328kts
12-Jul-18 09:16 34.197461 -118.840510 141 12692ft 304kts
12-Jul-18 09:17 34.135756 -118.778780 137 11742ft 281kts
12-Jul-18 09:18 34.078331 -118.716396 137 10409ft 275kts
12-Jul-18 09:19 34.028738 -118.651255 102 9340ft 261kts
12-Jul-18 09:20 34.020404 -118.565996 97 8193ft 255kts
12-Jul-18 09:21 34.012605 -118.482696 97 7350ft 238kts
12-Jul-18 09:22 34.019187 -118.404589 76 6601ft 239kts
12-Jul-18 09:23 34.030146 -118.329658 82 6054ft 232kts
12-Jul-18 09:24 34.036204 -118.255448 84 5564ft 213kts
12-Jul-18 09:25 34.040836 -118.181471 103 3785ft 225kts
12-Jul-18 09:26 33.995874 -118.153196 173 3523ft 191kts
12-Jul-18 09:27 33.961794 -118.194793 243 3118ft 188kts
12-Jul-18 09:28 33.951613 -118.246638 262 2353ft 161kts
12-Jul-18 09:29 33.946160 -118.298418 262 1537ft 141kts
12-Jul-18 09:30 33.941404 -118.344122 262 801ft 136kts
12-Jul-18 09:31 33.936716 -118.389007 262 141ft 127kts
12-Jul-18 09:32 33.935770 -118.405845 297 136ft 0kts
12-Jul-18 09:33 33.935952 -118.407014 267 136ft 16kts
12-Jul-18 09:34 33.938828 -118.407883 82 136ft 14kts
12-Jul-18 09:35 33.939389 -118.402281 82 136ft 19kts
12-Jul-18 09:36 33.940688 -118.400091 78 136ft 0kts
12-Jul-18 09:37 33.940692 -118.400069 78 136ft 0kts

Navigation Log

Ident Type
Flight plan parsing failed, navigation log unavailable